OMD189 KLAX-KGYR
Flight info
| Callsign | OMD189 |
|---|---|
| Flight time | 0h 58m |
| Altitude | 31000 |
| Route | DOTSS2 CNERY BLH BXK |
| Aircraft | A20N/M-V/N |
Departure
| Time | 2026-05-05 02:30 |
|---|---|
| Airport | Los Angeles International Airport (KLAX) |
Arrival
| Time | 2026-05-05 03:28 |
|---|---|
| Airport | Phoenix Goodyear Airport (KGYR) |
| Time | Latitude | Longitude | Altitude | Speed | Heading |
|---|---|---|---|---|---|
| 2026-05-05 01:56 | 33.93992 | -118.40385 | 121 ft | 0 kts | 310° |
| 2026-05-05 02:20 | 33.93991 | -118.40384 | 121 ft | 0 kts | 310° |
| 2026-05-05 02:20 | 33.93984 | -118.40373 | 121 ft | 0 kts | 309° |
| 2026-05-05 02:20 | 33.93978 | -118.40363 | 121 ft | 2 kts | 291° |
| 2026-05-05 02:21 | 33.93976 | -118.40344 | 121 ft | 2 kts | 262° |
| 2026-05-05 02:21 | 33.93981 | -118.40327 | 120 ft | 2 kts | 233° |
| 2026-05-05 02:21 | 33.93992 | -118.40314 | 120 ft | 2 kts | 206° |
| 2026-05-05 02:21 | 33.94006 | -118.40310 | 120 ft | 1 kts | 180° |
| 2026-05-05 02:22 | 33.94013 | -118.40310 | 120 ft | 1 kts | 170° |
| 2026-05-05 02:22 | 33.94016 | -118.40311 | 120 ft | 0 kts | 173° |
| 2026-05-05 02:23 | 33.94008 | -118.40310 | 120 ft | 1 kts | 173° |
| 2026-05-05 02:24 | 33.93990 | -118.40307 | 120 ft | 3 kts | 173° |
| 2026-05-05 02:24 | 33.93962 | -118.40303 | 120 ft | 4 kts | 174° |
| 2026-05-05 02:24 | 33.93901 | -118.40296 | 120 ft | 10 kts | 175° |
| 2026-05-05 02:24 | 33.93855 | -118.40248 | 120 ft | 11 kts | 89° |
| 2026-05-05 02:25 | 33.93866 | -118.40122 | 119 ft | 18 kts | 84° |
| 2026-05-05 02:25 | 33.93883 | -118.39956 | 116 ft | 20 kts | 83° |
| 2026-05-05 02:25 | 33.93899 | -118.39778 | 113 ft | 22 kts | 84° |
| 2026-05-05 02:25 | 33.93921 | -118.39590 | 111 ft | 23 kts | 83° |
| 2026-05-05 02:26 | 33.93940 | -118.39397 | 109 ft | 24 kts | 83° |
| 2026-05-05 02:26 | 33.93961 | -118.39196 | 107 ft | 24 kts | 83° |
| 2026-05-05 02:26 | 33.93981 | -118.38991 | 104 ft | 25 kts | 83° |
| 2026-05-05 02:26 | 33.94001 | -118.38783 | 104 ft | 24 kts | 83° |
| 2026-05-05 02:27 | 33.94021 | -118.38594 | 104 ft | 24 kts | 83° |
| 2026-05-05 02:27 | 33.94043 | -118.38383 | 101 ft | 25 kts | 83° |
| 2026-05-05 02:27 | 33.94065 | -118.38173 | 101 ft | 25 kts | 82° |
| 2026-05-05 02:27 | 33.94076 | -118.38044 | 101 ft | 0 kts | 99° |
| 2026-05-05 02:28 | 33.94070 | -118.38022 | 101 ft | 8 kts | 121° |
| 2026-05-05 02:28 | 33.94010 | -118.37995 | 101 ft | 11 kts | 172° |
| 2026-05-05 02:28 | 33.93984 | -118.38013 | 101 ft | 0 kts | 264° |
| 2026-05-05 02:29 | 33.93965 | -118.38192 | 101 ft | 70 kts | 263° |
| 2026-05-05 02:29 | 33.93874 | -118.39087 | 106 ft | 159 kts | 263° |
| 2026-05-05 02:29 | 33.93708 | -118.40704 | 127 ft | 230 kts | 263° |
| 2026-05-05 02:30 | 33.93559 | -118.42300 | 2095 ft | 187 kts | 262° |
| 2026-05-05 02:30 | 33.93482 | -118.43543 | 3909 ft | 154 kts | 262° |
| 2026-05-05 02:30 | 33.93437 | -118.44696 | 5253 ft | 143 kts | 262° |
| 2026-05-05 02:30 | 33.93394 | -118.45918 | 5911 ft | 177 kts | 260° |
| 2026-05-05 02:31 | 33.93116 | -118.47146 | 6713 ft | 190 kts | 231° |
| 2026-05-05 02:31 | 33.92125 | -118.48392 | 7923 ft | 205 kts | 217° |
| 2026-05-05 02:31 | 33.91135 | -118.49471 | 8965 ft | 224 kts | 218° |
| 2026-05-05 02:31 | 33.89997 | -118.50803 | 10096 ft | 245 kts | 221° |
| 2026-05-05 02:32 | 33.88849 | -118.52262 | 11180 ft | 266 kts | 223° |
| 2026-05-05 02:32 | 33.87568 | -118.53989 | 12310 ft | 287 kts | 223° |
| 2026-05-05 02:32 | 33.86001 | -118.55464 | 13370 ft | 299 kts | 200° |
| 2026-05-05 02:32 | 33.83981 | -118.55903 | 14514 ft | 305 kts | 172° |
| 2026-05-05 02:33 | 33.81995 | -118.55423 | 15922 ft | 308 kts | 164° |
| 2026-05-05 02:33 | 33.79911 | -118.54819 | 17334 ft | 313 kts | 165° |
| 2026-05-05 02:33 | 33.77815 | -118.54228 | 18621 ft | 319 kts | 165° |
| 2026-05-05 02:33 | 33.75634 | -118.53629 | 19870 ft | 324 kts | 166° |
| 2026-05-05 02:34 | 33.73429 | -118.53027 | 20837 ft | 335 kts | 165° |
| 2026-05-05 02:34 | 33.71252 | -118.51964 | 21441 ft | 353 kts | 147° |
| 2026-05-05 02:34 | 33.69413 | -118.49898 | 22236 ft | 366 kts | 127° |
| 2026-05-05 02:34 | 33.68274 | -118.47198 | 23164 ft | 374 kts | 113° |
| 2026-05-05 02:35 | 33.67388 | -118.44257 | 24039 ft | 380 kts | 112° |
| 2026-05-05 02:35 | 33.66510 | -118.41238 | 24820 ft | 386 kts | 112° |
| 2026-05-05 02:35 | 33.65618 | -118.38154 | 25574 ft | 393 kts | 111° |
| 2026-05-05 02:35 | 33.64916 | -118.34960 | 26291 ft | 401 kts | 104° |
| 2026-05-05 02:36 | 33.64525 | -118.31638 | 26970 ft | 409 kts | 97° |
| 2026-05-05 02:36 | 33.64429 | -118.28187 | 27626 ft | 415 kts | 94° |
| 2026-05-05 02:36 | 33.64427 | -118.24717 | 28238 ft | 420 kts | 93° |
| 2026-05-05 02:36 | 33.64440 | -118.21179 | 28819 ft | 425 kts | 93° |
| 2026-05-05 02:37 | 33.64452 | -118.17594 | 29385 ft | 429 kts | 93° |
| 2026-05-05 02:37 | 33.64457 | -118.14040 | 29958 ft | 432 kts | 93° |
| 2026-05-05 02:37 | 33.64460 | -118.10391 | 30471 ft | 436 kts | 93° |
| 2026-05-05 02:37 | 33.64458 | -118.06745 | 30883 ft | 441 kts | 93° |
| 2026-05-05 02:38 | 33.64454 | -118.02989 | 31014 ft | 453 kts | 93° |
| 2026-05-05 02:38 | 33.64449 | -117.99159 | 31022 ft | 465 kts | 92° |
| 2026-05-05 02:38 | 33.64444 | -117.95259 | 31027 ft | 475 kts | 92° |
| 2026-05-05 02:38 | 33.64440 | -117.91376 | 31020 ft | 456 kts | 93° |
| 2026-05-05 02:39 | 33.64430 | -117.87669 | 31027 ft | 444 kts | 94° |
| 2026-05-05 02:39 | 33.63987 | -117.80431 | 31040 ft | 439 kts | 100° |
| 2026-05-05 02:40 | 33.62831 | -117.73236 | 31047 ft | 436 kts | 107° |
| 2026-05-05 02:40 | 33.61155 | -117.66259 | 31051 ft | 436 kts | 109° |
| 2026-05-05 02:41 | 33.59418 | -117.59273 | 31053 ft | 435 kts | 109° |
| 2026-05-05 02:41 | 33.57691 | -117.52306 | 31051 ft | 435 kts | 109° |
| 2026-05-05 02:42 | 33.55960 | -117.45320 | 31047 ft | 436 kts | 109° |
| 2026-05-05 02:42 | 33.54230 | -117.38355 | 31038 ft | 436 kts | 109° |
| 2026-05-05 02:43 | 33.52507 | -117.31417 | 31033 ft | 436 kts | 109° |
| 2026-05-05 02:43 | 33.51134 | -117.24320 | 31033 ft | 438 kts | 103° |
| 2026-05-05 02:44 | 33.50431 | -117.17049 | 31039 ft | 441 kts | 96° |
| 2026-05-05 02:44 | 33.50279 | -117.09671 | 31046 ft | 442 kts | 94° |
| 2026-05-05 02:45 | 33.50196 | -117.02280 | 31048 ft | 445 kts | 94° |
| 2026-05-05 02:45 | 33.50094 | -116.94845 | 31048 ft | 449 kts | 95° |
| 2026-05-05 02:46 | 33.49981 | -116.87307 | 31047 ft | 453 kts | 95° |
| 2026-05-05 02:46 | 33.49863 | -116.79770 | 31041 ft | 455 kts | 95° |
| 2026-05-05 02:47 | 33.49741 | -116.72156 | 31018 ft | 456 kts | 95° |
| 2026-05-05 02:47 | 33.49616 | -116.64582 | 30984 ft | 456 kts | 95° |
| 2026-05-05 02:48 | 33.49484 | -116.56950 | 30951 ft | 457 kts | 95° |
| 2026-05-05 02:48 | 33.49414 | -116.53138 | 30942 ft | 470 kts | 95° |
| 2026-05-05 02:48 | 33.49339 | -116.49169 | 30932 ft | 482 kts | 95° |
| 2026-05-05 02:49 | 33.49191 | -116.41048 | 30916 ft | 490 kts | 94° |
| 2026-05-05 02:49 | 33.49074 | -116.32802 | 30905 ft | 491 kts | 95° |
| 2026-05-05 02:50 | 33.48959 | -116.24647 | 30902 ft | 491 kts | 95° |
| 2026-05-05 02:50 | 33.48830 | -116.16495 | 30900 ft | 491 kts | 95° |
| 2026-05-05 02:51 | 33.48903 | -116.08282 | 30900 ft | 494 kts | 89° |
| 2026-05-05 02:51 | 33.49892 | -116.00052 | 30899 ft | 498 kts | 81° |
| 2026-05-05 02:52 | 33.51859 | -115.92035 | 30901 ft | 501 kts | 73° |
| 2026-05-05 02:52 | 33.54195 | -115.84177 | 30900 ft | 501 kts | 73° |
| 2026-05-05 02:53 | 33.56526 | -115.76306 | 30900 ft | 501 kts | 73° |
| 2026-05-05 02:53 | 33.58836 | -115.68394 | 30900 ft | 501 kts | 73° |
| 2026-05-05 02:54 | 33.61137 | -115.60458 | 30900 ft | 501 kts | 73° |
| 2026-05-05 02:54 | 33.63171 | -115.52477 | 30899 ft | 498 kts | 79° |
| 2026-05-05 02:55 | 33.64249 | -115.44255 | 30899 ft | 494 kts | 89° |
| 2026-05-05 02:55 | 33.64288 | -115.36019 | 30898 ft | 490 kts | 97° |
| 2026-05-05 02:56 | 33.63326 | -115.27929 | 30899 ft | 485 kts | 107° |
| 2026-05-05 02:56 | 33.61718 | -115.20097 | 30900 ft | 484 kts | 107° |
| 2026-05-05 02:57 | 33.60693 | -115.12044 | 30899 ft | 493 kts | 99° |
| 2026-05-05 02:57 | 33.60378 | -115.03740 | 30898 ft | 500 kts | 97° |
| 2026-05-05 02:58 | 33.60159 | -114.95322 | 30897 ft | 508 kts | 97° |
| 2026-05-05 02:58 | 33.59924 | -114.86799 | 30900 ft | 510 kts | 97° |
| 2026-05-05 02:59 | 33.59674 | -114.78251 | 30900 ft | 510 kts | 97° |
| 2026-05-05 02:59 | 33.59210 | -114.69812 | 30900 ft | 508 kts | 99° |
| 2026-05-05 03:00 | 33.58635 | -114.61335 | 30900 ft | 508 kts | 100° |
| 2026-05-05 03:00 | 33.58072 | -114.53099 | 30900 ft | 508 kts | 100° |
| 2026-05-05 03:01 | 33.57511 | -114.44900 | 30900 ft | 508 kts | 100° |
| 2026-05-05 03:01 | 33.56928 | -114.36417 | 30900 ft | 508 kts | 100° |
| 2026-05-05 03:02 | 33.56358 | -114.28151 | 30900 ft | 508 kts | 100° |
| 2026-05-05 03:02 | 33.55766 | -114.19646 | 30900 ft | 508 kts | 100° |
| 2026-05-05 03:03 | 33.55167 | -114.11163 | 30900 ft | 508 kts | 100° |
| 2026-05-05 03:03 | 33.54564 | -114.02721 | 30900 ft | 508 kts | 100° |
| 2026-05-05 03:04 | 33.53953 | -113.94241 | 30901 ft | 508 kts | 100° |
| 2026-05-05 03:04 | 33.53338 | -113.85796 | 30903 ft | 508 kts | 100° |
| 2026-05-05 03:05 | 33.52722 | -113.77402 | 30905 ft | 508 kts | 100° |
| 2026-05-05 03:05 | 33.52095 | -113.68963 | 30907 ft | 508 kts | 100° |
| 2026-05-05 03:06 | 33.51461 | -113.60490 | 30915 ft | 508 kts | 100° |
| 2026-05-05 03:06 | 33.50826 | -113.52068 | 30901 ft | 505 kts | 100° |
| 2026-05-05 03:06 | 33.50512 | -113.47907 | 30507 ft | 498 kts | 100° |
| 2026-05-05 03:07 | 33.50202 | -113.43820 | 29701 ft | 493 kts | 100° |
| 2026-05-05 03:07 | 33.49885 | -113.39683 | 28877 ft | 487 kts | 100° |
| 2026-05-05 03:07 | 33.49579 | -113.35705 | 28167 ft | 479 kts | 100° |
| 2026-05-05 03:07 | 33.49280 | -113.31794 | 27429 ft | 464 kts | 101° |
| 2026-05-05 03:08 | 33.48998 | -113.28066 | 26203 ft | 448 kts | 101° |
| 2026-05-05 03:08 | 33.48714 | -113.24416 | 24550 ft | 441 kts | 101° |
| 2026-05-05 03:08 | 33.48430 | -113.20830 | 23025 ft | 429 kts | 100° |
| 2026-05-05 03:08 | 33.48152 | -113.17336 | 21574 ft | 417 kts | 100° |
| 2026-05-05 03:09 | 33.47887 | -113.14004 | 20149 ft | 405 kts | 99° |
| 2026-05-05 03:09 | 33.47625 | -113.10722 | 18697 ft | 394 kts | 99° |
| 2026-05-05 03:09 | 33.47370 | -113.07542 | 17255 ft | 385 kts | 98° |
| 2026-05-05 03:09 | 33.47119 | -113.04412 | 15806 ft | 375 kts | 98° |
| 2026-05-05 03:10 | 33.46871 | -113.01333 | 14348 ft | 367 kts | 97° |
| 2026-05-05 03:10 | 33.46632 | -112.98370 | 12915 ft | 360 kts | 97° |
| 2026-05-05 03:10 | 33.46397 | -112.95442 | 11475 ft | 353 kts | 96° |
| 2026-05-05 03:10 | 33.46167 | -112.92556 | 10038 ft | 348 kts | 96° |
| 2026-05-05 03:11 | 33.45936 | -112.89660 | 9120 ft | 350 kts | 96° |
| 2026-05-05 03:11 | 33.45705 | -112.86790 | 8861 ft | 334 kts | 96° |
| 2026-05-05 03:11 | 33.45467 | -112.84122 | 8593 ft | 320 kts | 101° |
| 2026-05-05 03:11 | 33.44752 | -112.81638 | 8245 ft | 308 kts | 120° |
| 2026-05-05 03:12 | 33.43542 | -112.79564 | 7855 ft | 301 kts | 129° |
| 2026-05-05 03:12 | 33.42242 | -112.77623 | 7487 ft | 293 kts | 130° |
| 2026-05-05 03:12 | 33.40976 | -112.75762 | 7143 ft | 286 kts | 130° |
| 2026-05-05 03:12 | 33.39718 | -112.73899 | 6786 ft | 280 kts | 129° |
| 2026-05-05 03:13 | 33.38509 | -112.72092 | 6436 ft | 275 kts | 129° |
| 2026-05-05 03:13 | 33.37325 | -112.70313 | 6090 ft | 271 kts | 129° |
| 2026-05-05 03:13 | 33.36157 | -112.68552 | 5748 ft | 267 kts | 129° |
| 2026-05-05 03:13 | 33.35016 | -112.66827 | 5412 ft | 264 kts | 129° |
| 2026-05-05 03:14 | 33.33865 | -112.65089 | 5074 ft | 261 kts | 129° |
| 2026-05-05 03:14 | 33.32747 | -112.63399 | 4745 ft | 259 kts | 129° |
| 2026-05-05 03:14 | 33.31622 | -112.61700 | 4414 ft | 257 kts | 129° |
| 2026-05-05 03:14 | 33.30509 | -112.60020 | 4105 ft | 254 kts | 129° |
| 2026-05-05 03:15 | 33.29448 | -112.58418 | 4021 ft | 240 kts | 129° |
| 2026-05-05 03:15 | 33.28440 | -112.56894 | 4009 ft | 224 kts | 129° |
| 2026-05-05 03:15 | 33.27505 | -112.55473 | 3988 ft | 210 kts | 127° |
| 2026-05-05 03:15 | 33.26982 | -112.53860 | 3804 ft | 207 kts | 91° |
| 2026-05-05 03:16 | 33.27354 | -112.52267 | 3668 ft | 201 kts | 54° |
| 2026-05-05 03:16 | 33.28348 | -112.51089 | 3547 ft | 201 kts | 38° |
| 2026-05-05 03:16 | 33.29463 | -112.50058 | 3418 ft | 200 kts | 37° |
| 2026-05-05 03:16 | 33.30551 | -112.49060 | 3292 ft | 200 kts | 37° |
| 2026-05-05 03:17 | 33.31638 | -112.48037 | 3166 ft | 200 kts | 38° |
| 2026-05-05 03:17 | 33.32704 | -112.46983 | 3041 ft | 199 kts | 42° |
| 2026-05-05 03:17 | 33.33722 | -112.45819 | 2880 ft | 200 kts | 43° |
| 2026-05-05 03:17 | 33.34591 | -112.44851 | 2647 ft | 201 kts | 41° |
| 2026-05-05 03:18 | 33.35592 | -112.43833 | 2394 ft | 202 kts | 38° |
| 2026-05-05 03:18 | 33.36706 | -112.42801 | 2127 ft | 202 kts | 36° |
| 2026-05-05 03:18 | 33.37810 | -112.41785 | 1863 ft | 202 kts | 37° |
| 2026-05-05 03:18 | 33.39015 | -112.40609 | 1251 ft | 269 kts | 38° |
| 2026-05-05 03:19 | 33.44285 | -112.35287 | 3250 ft | 247 kts | 44° |
| 2026-05-05 03:19 | 33.45083 | -112.34316 | 4733 ft | 150 kts | 47° |
| 2026-05-05 03:20 | 33.46202 | -112.33690 | 3824 ft | 225 kts | 356° |
| 2026-05-05 03:20 | 33.47744 | -112.34309 | 2727 ft | 253 kts | 359° |
| 2026-05-05 03:20 | 33.48584 | -112.33039 | 2203 ft | 248 kts | 119° |
| 2026-05-05 03:20 | 33.47160 | -112.32921 | 1220 ft | 258 kts | 217° |
| 2026-05-05 03:21 | 33.45526 | -112.34383 | 1074 ft | 331 kts | 218° |
| 2026-05-05 03:21 | 33.43769 | -112.36025 | 1024 ft | 342 kts | 218° |
| 2026-05-05 03:21 | 33.41839 | -112.37571 | 2028 ft | 306 kts | 214° |
| 2026-05-05 03:21 | 33.40462 | -112.38639 | 5425 ft | 240 kts | 213° |
| 2026-05-05 03:22 | 33.39184 | -112.40190 | 5188 ft | 295 kts | 245° |
| 2026-05-05 03:22 | 33.38696 | -112.42570 | 4125 ft | 310 kts | 274° |
| 2026-05-05 03:22 | 33.39523 | -112.44878 | 3384 ft | 317 kts | 318° |
| 2026-05-05 03:22 | 33.41706 | -112.45682 | 1949 ft | 365 kts | 8° |
| 2026-05-05 03:23 | 33.43833 | -112.44455 | 1544 ft | 366 kts | 32° |
| 2026-05-05 03:23 | 33.44958 | -112.42120 | 1620 ft | 324 kts | 110° |
| 2026-05-05 03:23 | 33.44009 | -112.39729 | 1159 ft | 328 kts | 118° |
| 2026-05-05 03:23 | 33.42881 | -112.37157 | 1214 ft | 377 kts | 118° |
| 2026-05-05 03:24 | 33.41290 | -112.35575 | 2807 ft | 290 kts | 180° |
| 2026-05-05 03:24 | 33.39763 | -112.36741 | 2311 ft | 281 kts | 260° |
| 2026-05-05 03:24 | 33.40534 | -112.38784 | 1716 ft | 279 kts | 307° |
| 2026-05-05 03:24 | 33.41660 | -112.40607 | 1565 ft | 264 kts | 304° |
| 2026-05-05 03:25 | 33.42739 | -112.42314 | 1301 ft | 255 kts | 333° |
| 2026-05-05 03:25 | 33.44109 | -112.41657 | 1138 ft | 240 kts | 72° |
| 2026-05-05 03:25 | 33.43887 | -112.39771 | 1064 ft | 248 kts | 115° |
| 2026-05-05 03:25 | 33.43072 | -112.37650 | 1037 ft | 319 kts | 116° |
| 2026-05-05 03:26 | 33.41629 | -112.35651 | 1965 ft | 315 kts | 166° |
| 2026-05-05 03:26 | 33.39872 | -112.35224 | 3126 ft | 247 kts | 173° |
| 2026-05-05 03:26 | 33.38350 | -112.35691 | 2651 ft | 230 kts | 225° |
| 2026-05-05 03:26 | 33.37748 | -112.37408 | 1792 ft | 236 kts | 276° |
| 2026-05-05 03:27 | 33.38619 | -112.38891 | 1433 ft | 223 kts | 338° |
| 2026-05-05 03:27 | 33.40071 | -112.39018 | 1220 ft | 208 kts | 6° |
| 2026-05-05 03:27 | 33.41323 | -112.38470 | 1005 ft | 197 kts | 33° |
| 2026-05-05 03:27 | 33.42255 | -112.37601 | 959 ft | 106 kts | 38° |
| 2026-05-05 03:28 | 33.42526 | -112.37180 | 961 ft | 30 kts | 43° |
| 2026-05-05 03:28 | 33.42683 | -112.37036 | 964 ft | 26 kts | 41° |
| 2026-05-05 03:28 | 33.42745 | -112.36935 | 964 ft | 2 kts | 146° |
| 2026-05-05 03:28 | 33.42736 | -112.36917 | 964 ft | 4 kts | 101° |
| 2026-05-05 03:29 | 33.42744 | -112.36900 | 964 ft | 0 kts | 38° |
| 2026-05-05 03:29 | 33.42749 | -112.36897 | 964 ft | 2 kts | 21° |
| 2026-05-05 03:29 | 33.42754 | -112.36893 | 964 ft | 0 kts | 36° |